createdAt,value
2022-08-22T00:02:04.383Z,16.86
2022-08-22T00:07:12.219Z,16.79
2022-08-22T00:12:20.086Z,16.73
2022-08-22T00:17:26.625Z,16.65
2022-08-22T00:22:34.569Z,16.61
2022-08-22T00:27:42.622Z,16.52
2022-08-22T00:32:50.313Z,16.42
2022-08-22T00:37:57.979Z,16.4
2022-08-22T00:44:36.699Z,16.33
2022-08-22T00:49:43.372Z,16.22
2022-08-22T00:54:51.101Z,16.18
2022-08-22T00:59:58.786Z,16.15
2022-08-22T01:05:06.841Z,16.1
2022-08-22T01:10:15.258Z,16.08
2022-08-22T01:15:23.176Z,16.06
2022-08-22T01:20:31.283Z,16.0
2022-08-22T01:25:37.844Z,15.9
2022-08-22T01:30:44.850Z,15.82
2022-08-22T01:35:53.044Z,15.74
2022-08-22T01:41:01.822Z,15.7
2022-08-22T01:46:10.853Z,15.69
2022-08-22T01:51:19.127Z,15.68
2022-08-22T01:56:27.165Z,15.66
2022-08-22T02:01:34.462Z,15.66
2022-08-22T02:06:42.362Z,15.66
2022-08-22T02:11:49.989Z,15.63
2022-08-22T02:16:58.328Z,15.63
2022-08-22T02:22:05.679Z,15.62
2022-08-22T02:27:13.522Z,15.62
2022-08-22T02:32:20.715Z,15.59
2022-08-22T02:37:29.046Z,15.58
2022-08-22T02:42:37.525Z,15.58
2022-08-22T02:47:45.301Z,15.59
2022-08-22T02:52:53.522Z,15.57
2022-08-22T02:58:01.776Z,15.59
2022-08-22T03:03:09.590Z,15.6
2022-08-22T03:08:17.521Z,15.62
2022-08-22T03:13:33.578Z,15.63
2022-08-22T03:18:42.003Z,15.64
2022-08-22T03:23:48.697Z,15.7
2022-08-22T03:30:28.079Z,15.7
2022-08-22T03:35:34.006Z,15.66
2022-08-22T03:40:41.635Z,15.54
2022-08-22T03:45:49.509Z,15.52
2022-08-22T03:50:57.533Z,15.43
2022-08-22T03:56:12.397Z,15.42
2022-08-22T04:01:19.831Z,15.44
2022-08-22T04:06:26.946Z,15.4
2022-08-22T04:11:34.617Z,15.38
2022-08-22T04:16:42.518Z,15.36
2022-08-22T04:21:49.658Z,15.28
2022-08-22T04:26:57.651Z,15.24
2022-08-22T04:32:06.122Z,15.26
2022-08-22T04:37:13.215Z,15.29
2022-08-22T04:42:20.724Z,15.29
2022-08-22T04:47:28.218Z,15.18
2022-08-22T04:52:35.994Z,15.18
2022-08-22T04:57:43.990Z,15.18
2022-08-22T05:02:52.317Z,15.17
2022-08-22T05:08:00.393Z,15.21
2022-08-22T05:13:08.887Z,15.24
2022-08-22T05:18:17.140Z,15.3
2022-08-22T05:23:24.423Z,15.26
2022-08-22T05:28:32.622Z,15.18
2022-08-22T05:33:41.210Z,15.18
2022-08-22T05:38:49.402Z,15.2
2022-08-22T05:43:57.527Z,15.3
2022-08-22T05:49:06.001Z,15.28
2022-08-22T05:54:13.339Z,15.24
2022-08-22T05:59:21.176Z,15.22
2022-08-22T06:04:29.600Z,15.2
2022-08-22T06:09:37.693Z,15.21
2022-08-22T06:14:45.412Z,15.28
2022-08-22T06:19:53.809Z,15.3
2022-08-22T06:25:03.780Z,15.34
2022-08-22T06:30:10.925Z,15.42
2022-08-22T06:35:18.486Z,15.46
2022-08-22T06:40:26.406Z,15.49
2022-08-22T06:45:34.412Z,15.62
2022-08-22T06:50:43.381Z,15.7
2022-08-22T06:55:52.497Z,15.84
2022-08-22T07:01:00.107Z,15.9
2022-08-22T07:06:08.724Z,15.92
2022-08-22T07:11:15.430Z,15.98
2022-08-22T07:16:23.445Z,15.94
2022-08-22T07:21:32.605Z,15.79
2022-08-22T07:26:39.664Z,15.76
2022-08-22T07:31:47.420Z,15.83
2022-08-22T07:36:55.766Z,15.78
2022-08-22T07:42:03.510Z,15.86
2022-08-22T07:47:11.617Z,15.9
2022-08-22T07:52:18.784Z,15.83
2022-08-22T07:57:28.349Z,15.79
2022-08-22T08:02:35.740Z,15.78
2022-08-22T08:07:43.965Z,15.82
2022-08-22T08:12:51.490Z,15.72
2022-08-22T08:17:57.317Z,15.84
2022-08-22T08:23:05.650Z,15.92
2022-08-22T08:28:14.167Z,15.96
2022-08-22T08:33:21.759Z,16.07
2022-08-22T08:38:28.944Z,15.94
2022-08-22T08:43:36.407Z,15.9
2022-08-22T08:48:44.338Z,15.9
2022-08-22T08:53:52.625Z,16.04
2022-08-22T08:59:00.054Z,16.28
2022-08-22T09:04:08.409Z,16.3
2022-08-22T09:09:16.375Z,16.46
2022-08-22T09:14:23.906Z,16.46
2022-08-22T09:19:32.086Z,16.65
2022-08-22T09:24:39.917Z,16.65
2022-08-22T09:29:47.669Z,16.8
2022-08-22T09:34:54.293Z,17.09
2022-08-22T09:40:02.070Z,17.4
2022-08-22T09:45:10.485Z,17.43
2022-08-22T09:50:18.008Z,17.42
2022-08-22T09:55:25.685Z,17.78
2022-08-22T10:00:34.136Z,18.2
2022-08-22T10:05:41.520Z,18.26
2022-08-22T10:10:49.178Z,18.14
2022-08-22T10:15:56.630Z,18.33
2022-08-22T10:21:04.536Z,18.35
2022-08-22T10:26:52.427Z,18.56
2022-08-22T10:32:00.214Z,18.53
2022-08-22T10:37:06.785Z,18.26
2022-08-22T10:42:14.621Z,17.8
2022-08-22T10:47:21.828Z,17.48
2022-08-22T10:52:29.862Z,17.34
2022-08-22T10:57:36.872Z,17.33
2022-08-22T11:02:44.085Z,17.34
2022-08-22T11:07:51.713Z,17.32
2022-08-22T11:12:58.964Z,17.41
2022-08-22T11:18:15.516Z,17.53
2022-08-22T11:23:23.098Z,17.6
2022-08-22T11:28:30.650Z,17.73
2022-08-22T11:33:39.115Z,18.02
2022-08-22T11:38:47.762Z,18.1
2022-08-22T11:43:56.778Z,18.19
2022-08-22T11:49:04.573Z,18.06
2022-08-22T11:54:12.483Z,18.02
2022-08-22T11:59:20.394Z,18.06
2022-08-22T12:04:28.247Z,18.01
2022-08-22T12:09:34.952Z,18.12
2022-08-22T12:14:43.191Z,18.1
2022-08-22T12:19:51.474Z,18.21
2022-08-22T12:25:00.077Z,18.34
2022-08-22T12:30:08.729Z,18.47
2022-08-22T12:35:15.450Z,18.5
2022-08-22T12:40:23.944Z,18.48
2022-08-22T12:45:31.032Z,17.98
2022-08-22T12:50:39.138Z,17.79
2022-08-22T12:55:46.149Z,17.52
2022-08-22T13:00:54.622Z,17.56
2022-08-22T13:06:03.613Z,17.82
2022-08-22T13:11:11.738Z,17.73
2022-08-22T13:16:19.834Z,17.84
2022-08-22T13:21:28.404Z,17.78
2022-08-22T13:26:37.529Z,17.83
2022-08-22T13:31:44.573Z,17.86
2022-08-22T13:36:52.720Z,17.7
2022-08-22T13:42:00.526Z,17.61
2022-08-22T13:47:08.171Z,17.69
2022-08-22T13:52:14.956Z,17.9
2022-08-22T13:57:23.290Z,17.96
2022-08-22T14:02:30.625Z,17.85
2022-08-22T14:07:37.800Z,17.88
2022-08-22T14:12:45.659Z,17.94
2022-08-22T14:17:54.085Z,17.98
2022-08-22T14:23:00.510Z,17.9
2022-08-22T14:28:09.678Z,17.82
2022-08-22T14:33:17.544Z,17.72
2022-08-22T14:38:24.980Z,17.66
2022-08-22T14:43:33.206Z,17.61
2022-08-22T14:48:41.003Z,17.54
2022-08-22T14:53:47.676Z,17.44
2022-08-22T14:58:54.942Z,17.36
2022-08-22T15:04:03.666Z,17.32
2022-08-22T15:09:10.090Z,17.38
2022-08-22T15:14:18.967Z,17.42
2022-08-22T15:19:26.668Z,17.48
2022-08-22T15:24:34.255Z,17.49
2022-08-22T15:29:42.488Z,17.6
2022-08-22T15:34:50.238Z,17.66
2022-08-22T15:39:57.680Z,17.66
2022-08-22T15:45:04.297Z,17.58
2022-08-22T15:50:11.420Z,17.53
2022-08-22T15:55:19.071Z,17.46
2022-08-22T16:00:27.594Z,17.29
2022-08-22T16:05:34.304Z,17.12
2022-08-22T16:10:41.496Z,17.03
2022-08-22T16:15:48.098Z,16.92
2022-08-22T16:20:56.704Z,16.85
2022-08-22T16:26:05.531Z,16.82
2022-08-22T16:31:19.442Z,16.75
2022-08-22T16:36:27.069Z,16.64
2022-08-22T16:41:33.853Z,16.5
2022-08-22T16:46:43.108Z,16.41
2022-08-22T16:51:49.921Z,16.38
2022-08-22T16:56:57.185Z,16.34
2022-08-22T17:02:04.474Z,16.15
2022-08-22T17:07:13.372Z,15.94
2022-08-22T17:12:20.737Z,15.8
2022-08-22T17:17:27.288Z,15.75
2022-08-22T17:22:35.316Z,15.74
2022-08-22T17:27:43.022Z,15.71
2022-08-22T17:32:50.141Z,15.72
2022-08-22T17:37:57.784Z,15.7
2022-08-22T17:43:06.330Z,15.66
2022-08-22T17:48:13.830Z,15.67
2022-08-22T17:53:21.326Z,15.7
2022-08-22T17:58:29.452Z,15.71
2022-08-22T18:03:37.291Z,15.75
2022-08-22T18:08:50.162Z,15.76
2022-08-22T18:13:56.893Z,15.75
2022-08-22T18:19:03.845Z,15.78
2022-08-22T18:24:11.129Z,15.78
2022-08-22T18:29:18.331Z,15.8
2022-08-22T18:34:25.523Z,15.86
2022-08-22T18:39:32.764Z,15.88
2022-08-22T18:44:41.044Z,15.88
2022-08-22T18:49:48.754Z,15.98
2022-08-22T18:54:56.883Z,15.97
2022-08-22T19:00:03.420Z,15.94
2022-08-22T19:05:12.060Z,15.94
2022-08-22T19:10:20.441Z,15.96
2022-08-22T19:15:26.971Z,15.97
2022-08-22T19:20:35.568Z,15.96
2022-08-22T19:25:43.266Z,15.92
2022-08-22T19:30:51.110Z,15.89
2022-08-22T19:35:58.333Z,15.89
2022-08-22T19:41:05.677Z,15.92
2022-08-22T19:46:13.587Z,15.89
2022-08-22T19:51:21.750Z,15.86
2022-08-22T19:56:29.235Z,15.86
2022-08-22T20:01:37.323Z,15.86
2022-08-22T20:06:45.507Z,15.86
2022-08-22T20:11:52.757Z,15.84
2022-08-22T20:17:01.175Z,15.86
2022-08-22T20:22:09.165Z,15.94
2022-08-22T20:27:17.185Z,15.92
2022-08-22T20:32:24.960Z,15.92
2022-08-22T20:37:32.888Z,15.96
2022-08-22T20:42:40.412Z,15.97
2022-08-22T20:47:48.867Z,16.01
2022-08-22T20:52:56.535Z,15.97
2022-08-22T20:58:03.783Z,15.71
2022-08-22T21:03:11.433Z,15.48
2022-08-22T21:08:19.146Z,15.34
2022-08-22T21:13:27.423Z,15.3
2022-08-22T21:18:36.085Z,15.24
2022-08-22T21:23:43.650Z,15.17
2022-08-22T21:28:51.417Z,15.12
2022-08-22T21:33:58.886Z,15.07
2022-08-22T21:39:07.261Z,15.08
2022-08-22T21:44:15.450Z,15.08
2022-08-22T21:49:22.121Z,15.11
2022-08-22T21:54:30.014Z,15.16
2022-08-22T21:59:38.296Z,15.15
2022-08-22T22:04:46.803Z,15.2
2022-08-22T22:09:54.773Z,15.22
2022-08-22T22:15:02.789Z,15.25
2022-08-22T22:20:09.813Z,15.32
2022-08-22T22:25:18.054Z,15.34
2022-08-22T22:30:26.332Z,15.38
2022-08-22T22:35:34.614Z,15.38
2022-08-22T22:40:43.865Z,15.38
2022-08-22T22:45:51.574Z,15.38
2022-08-22T22:50:58.805Z,15.4
2022-08-22T22:56:06.246Z,15.4
2022-08-22T23:01:14.067Z,15.42
2022-08-22T23:06:30.282Z,15.42
2022-08-22T23:11:37.629Z,15.42
2022-08-22T23:16:45.713Z,15.44
2022-08-22T23:21:53.542Z,15.48
2022-08-22T23:27:01.486Z,15.52
2022-08-22T23:32:08.597Z,15.52
2022-08-22T23:37:15.102Z,15.52
2022-08-22T23:42:23.025Z,15.51
2022-08-22T23:47:30.870Z,15.51
2022-08-22T23:52:38.010Z,15.47
2022-08-22T23:57:45.872Z,15.4
